VK6CV Weather Reports


time (UTC)temp
C
wind
direction
speed
KPH
gust
KPH
rain 1hr
cm
rain 24hr
cm
rain mn
cm
humidity
%
barometer
mb
20260503181052 10 0 0.0 1.6 0.00 0.00 0.00 83 1026.2
20260503180552 10 0 0.0 1.6 0.00 0.00 0.00 83 1026.2
20260503180058 11 0 0.0 1.6 0.00 0.00 0.00 83 1026.2
20260503175552 11 0 0.0 0.0 0.00 0.00 0.00 82 1026.2
20260503175051 11 0 0.0 0.0 0.00 0.00 0.00 82 1026.3
20260503174556 11 0 0.0 0.0 0.00 0.00 0.00 82 1026.2
20260503174051 11 0 0.0 0.0 0.00 0.00 0.00 81 1026.2
20260503173555 11 0 0.0 0.0 0.00 0.00 0.00 81 1026.2
20260503173051 11 0 0.0 0.0 0.00 0.00 0.00 81 1026.2
20260503172554 11 0 0.0 0.0 0.00 0.00 0.00 81 1026.3
20260503172055 11 0 0.0 3.2 0.00 0.00 0.00 81 1026.3
20260503171610 11 0 0.0 3.2 0.00 0.00 0.00 81 1026.3
20260503171059 11 247 0.0 3.2 0.00 0.00 0.00 81 1026.4
20260503170554 11 0 0.0 1.6 0.00 0.00 0.00 81 1026.3
20260503170103 11 0 0.0 1.6 0.00 0.00 0.00 81 1026.3
20260503150553 13 247 1.6 4.8 0.00 0.00 0.00 78 1026.1
20260503131056 14 0 0.0 4.8 0.00 0.00 0.00 83 1025.7
20260503130551 14 0 0.0 4.8 0.00 0.00 0.00 83 1025.6
20260503110554 16 0 0.0 3.2 0.00 0.00 0.00 76 1025.0
20260503090110 19 117 1.6 6.4 0.00 0.00 0.00 57 1024.3
20260503081552 20 118 6.4 14.5 0.00 0.00 0.00 53 1024.0
20260503081118 20 140 6.4 12.9 0.00 0.00 0.00 53 1024.0
20260503080552 20 117 4.8 12.9 0.00 0.00 0.00 54 1024.0
20260503072553 19 129 4.8 14.5 0.00 0.00 0.00 56 1023.9
20260503072054 19 117 6.4 16.1 0.00 0.00 0.00 56 1024.1
20260503071608 19 103 8.0 16.1 0.00 0.00 0.00 57 1024.0
20260503071052 19 81 8.0 14.5 0.00 0.00 0.00 57 1024.0
20260503070553 19 109 4.8 14.5 0.00 0.00 0.00 56 1023.9
20260503055053 18 36 4.8 12.9 0.00 0.00 0.00 62 1024.4
20260503054602 18 68 4.8 9.7 0.00 0.00 0.00 62 1024.4
20260503054057 18 117 3.2 12.9 0.00 0.00 0.00 63 1024.4
20260503053553 17 118 6.4 12.9 0.00 0.00 0.00 62 1024.4
20260503053055 17 122 3.2 14.5 0.00 0.00 0.00 64 1024.5
20260503052553 17 122 3.2 14.5 0.00 0.00 0.00 65 1024.6
20260503052056 17 122 4.8 14.5 0.00 0.00 0.00 65 1024.7
20260503051557 17 101 1.6 12.9 0.00 0.00 0.00 66 1024.7
20260503051053 17 101 4.8 16.1 0.00 0.00 0.00 65 1024.8
20260503050551 17 108 6.4 16.1 0.00 0.00 0.00 65 1024.9
20260503050056 17 94 3.2 16.1 0.00 0.00 0.00 66 1024.9
20260503045551 17 44 8.0 16.1 0.00 0.00 0.00 66 1025.0
20260503045051 17 94 6.4 16.1 0.00 0.00 0.00 66 1025.0
20260503044558 17 126 6.4 16.1 0.00 0.00 0.00 67 1025.2
20260503044050 17 68 6.4 14.5 0.00 0.00 0.00 67 1025.2
20260503043554 17 83 4.8 12.9 0.00 0.00 0.00 67 1025.3
20260503043053 16 67 6.4 12.9 0.00 0.00 0.00 67 1025.2
20260503042555 16 78 3.2 12.9 0.00 0.00 0.00 68 1025.5
20260503042052 16 128 4.8 12.9 0.00 0.00 0.00 67 1025.5
20260503041553 16 78 4.8 11.3 0.00 0.00 0.00 68 1025.6
20260503041052 16 106 3.2 11.3 0.00 0.00 0.00 68 1025.8
20260503040551 16 118 3.2 14.5 0.00 0.00 0.00 69 1025.8
20260503040055 16 72 4.8 14.5 0.00 0.00 0.00 68 1025.8
20260503035548 16 71 6.4 14.5 0.00 0.00 0.00 67 1025.9
20260503035051 16 114 4.8 14.5 0.00 0.00 0.00 68 1025.9
20260503034557 16 99 6.4 14.5 0.00 0.00 0.00 68 1026.0
20260503034051 16 63 3.2 14.5 0.00 0.00 0.00 68 1026.1
20260503033548 16 63 8.0 14.5 0.00 0.00 0.00 68 1026.0
20260503033050 16 102 6.4 16.1 0.00 0.00 0.00 68 1026.1
20260503032551 16 19 8.0 17.7 0.00 0.00 0.00 68 1026.2
20260503032051 16 113 8.0 17.7 0.00 0.00 0.00 69 1026.2
20260503031551 16 83 6.4 14.5 0.00 0.00 0.00 69 1026.1
20260503031051 16 331 4.8 14.5 0.00 0.00 0.00 69 1026.2
20260503030552 16 65 6.4 14.5 0.00 0.00 0.00 69 1026.3
20260503030056 16 34 8.0 14.5 0.00 0.00 0.00 69 1026.4
20260503025551 16 33 4.8 14.5 0.00 0.00 0.00 68 1026.3
20260503025051 16 317 4.8 11.3 0.00 0.00 0.00 67 1026.3
20260503024554 16 143 1.6 6.4 0.00 0.00 0.00 69 1026.3
20260503024052 16 143 1.6 11.3 0.00 0.00 0.00 69 1026.5
20260503023552 16 143 3.2 11.3 0.00 0.00 0.00 69 1026.4
20260503023101 16 143 1.6 4.8 0.00 0.00 0.00 71 1026.5
20260503022551 16 143 1.6 8.0 0.00 0.00 0.00 71 1026.4
20260503022053 16 143 3.2 12.9 0.00 0.00 0.00 70 1026.5
20260503021557 16 141 3.2 12.9 0.00 0.00 0.00 71 1026.6
20260503021053 16 142 3.2 12.9 0.00 0.00 0.00 71 1026.7
20260503020552 15 158 0.0 9.7 0.00 0.00 0.00 73 1026.7
20260503020058 15 154 1.6 9.7 0.00 0.00 0.00 74 1026.7
20260503015553 15 153 4.8 11.3 0.00 0.00 0.00 72 1026.7
20260503015053 15 155 3.2 11.3 0.00 0.00 0.00 73 1026.7
20260503014557 15 360 4.8 11.3 0.00 0.00 0.00 72 1026.6
20260503014053 15 165 4.8 8.0 0.00 0.00 0.00 73 1026.6
20260503013557 15 166 3.2 9.7 0.00 0.00 0.00 74 1026.7
20260503013101 14 166 3.2 9.7 0.00 0.00 0.00 73 1026.8
20260503012555 14 165 1.6 8.0 0.00 0.00 0.00 74 1026.7
20260503012053 14 165 1.6 9.7 0.00 0.00 0.00 75 1026.9
20260503011626 13 165 1.6 9.7 0.00 0.00 0.00 76 1026.7
20260503011053 13 165 3.2 9.7 0.00 0.00 0.00 77 1026.7
20260503010554 13 167 4.8 9.7 0.00 0.00 0.00 77 1026.7
20260503010059 13 167 4.8 9.7 0.00 0.00 0.00 78 1026.8
20260503005557 12 167 4.8 11.3 0.00 0.00 0.00 79 1026.6
20260503005053 12 167 4.8 11.3 0.00 0.00 0.00 79 1026.7
20260503004558 12 167 6.4 11.3 0.00 0.00 0.00 80 1026.7
20260503004054 12 172 3.2 8.0 0.00 0.00 0.00 81 1026.7
20260503003554 12 172 3.2 8.0 0.00 0.00 0.00 81 1026.7
20260503003057 11 171 3.2 8.0 0.00 0.00 0.00 82 1026.6
20260503002554 11 171 3.2 8.0 0.00 0.00 0.00 83 1026.5
20260503002054 11 172 1.6 4.8 0.00 0.00 0.00 84 1026.5
20260503001553 11 0 0.0 3.2 0.00 0.00 0.00 86 1026.5
20260503001052 10 171 0.0 3.2 0.00 0.00 0.00 86 1026.4
20260503000554 10 171 0.0 6.4 0.00 0.00 0.00 86 1026.3
20260503000114 10 171 1.6 6.4 0.00 0.00 0.00 87 1026.3
20260502235555 9 171 0.0 3.2 0.00 0.00 0.00 87 1026.2
20260502235053 9 171 0.0 3.2 0.00 0.00 0.00 88 1026.3
20260502234605 9 0 0.0 1.6 0.00 0.00 0.00 89 1026.2
20260502234053 9 0 0.0 1.6 0.00 0.00 0.00 89 1026.2
20260502233554 8 0 0.0 0.0 0.00 0.00 0.00 90 1026.1
20260502233055 8 0 0.0 0.0 0.00 0.00 0.00 90 1026.1
20260502232553 8 0 0.0 0.0 0.00 0.00 0.00 90 1025.9
20260502232056 8 0 0.0 0.0 0.00 0.00 0.00 90 1026.0
20260502231554 8 0 0.0 0.0 0.00 0.00 0.00 90 1025.8
20260502231055 8 0 0.0 0.0 0.00 0.00 0.00 89 1025.9
20260502230553 7 0 0.0 0.0 0.00 0.00 0.00 89 1025.9
20260502230055 7 0 0.0 0.0 0.00 0.00 0.00 88 1025.6
20260502225554 7 0 0.0 1.6 0.00 0.00 0.00 88 1025.5
20260502225051 7 0 0.0 1.6 0.00 0.00 0.00 88 1025.4
20260502224555 7 0 0.0 0.0 0.00 0.00 0.00 88 1025.4
20260502224052 7 0 0.0 0.0 0.00 0.00 0.00 88 1025.5
20260502223551 8 0 0.0 0.0 0.00 0.00 0.00 88 1025.3
20260502223053 8 0 0.0 0.0 0.00 0.00 0.00 88 1025.4
20260502222552 8 0 0.0 0.0 0.00 0.00 0.00 88 1025.3
20260502222052 8 0 0.0 0.0 0.00 0.00 0.00 88 1025.3
20260502221606 8 0 0.0 1.6 0.00 0.00 0.00 88 1025.2
20260502221052 8 0 0.0 1.6 0.00 0.00 0.00 88 1025.2
20260502220551 8 0 0.0 0.0 0.00 0.00 0.00 88 1025.2
20260502220108 8 0 0.0 0.0 0.00 0.00 0.00 88 1025.1
20260502215551 8 0 0.0 0.0 0.00 0.00 0.00 88 1025.2
20260502215051 8 0 0.0 0.0 0.00 0.00 0.00 88 1025.0
20260502214551 8 0 0.0 0.0 0.00 0.00 0.00 88 1025.1
20260502214051 8 0 0.0 1.6 0.00 0.00 0.00 88 1025.2
20260502213555 8 0 0.0 1.6 0.00 0.00 0.00 88 1025.0
20260502213057 8 0 0.0 1.6 0.00 0.00 0.00 88 1025.1
20260502212552 8 0 0.0 0.0 0.00 0.00 0.00 87 1025.1
20260502212052 8 0 0.0 0.0 0.00 0.00 0.00 87 1025.0
20260502211557 8 0 0.0 0.0 0.00 0.00 0.00 87 1024.9
20260502211051 8 0 0.0 0.0 0.00 0.00 0.00 88 1024.9
20260502210553 8 0 0.0 0.0 0.00 0.00 0.00 88 1024.9
20260502210129 8 0 0.0 0.0 0.00 0.00 0.00 87 1024.9
20260502205555 8 0 0.0 0.0 0.00 0.00 0.00 87 1024.9
20260502205051 8 0 0.0 0.0 0.00 0.00 0.00 87 1024.8
20260502204554 8 0 0.0 0.0 0.00 0.00 0.00 87 1024.8
20260502204051 8 0 0.0 0.0 0.00 0.00 0.00 87 1024.7
20260502203550 8 0 0.0 0.0 0.00 0.00 0.00 87 1024.7
20260502203056 8 0 0.0 0.0 0.00 0.00 0.00 87 1024.7
20260502202551 8 0 0.0 0.0 0.00 0.00 0.00 87 1024.6
20260502202052 8 0 0.0 0.0 0.00 0.00 0.00 87 1024.6
20260502201556 8 0 0.0 0.0 0.00 0.00 0.00 86 1024.7
20260502201050 8 0 0.0 0.0 0.00 0.00 0.00 86 1024.8
20260502200553 8 0 0.0 0.0 0.00 0.00 0.00 86 1024.8
20260502200115 8 0 0.0 0.0 0.00 0.00 0.00 86 1024.7
20260502195551 8 0 0.0 0.0 0.00 0.00 0.00 86 1024.8
20260502195051 8 0 0.0 0.0 0.00 0.00 0.00 86 1024.8
20260502194553 8 0 0.0 0.0 0.00 0.00 0.00 86 1024.8
20260502194051 8 0 0.0 0.0 0.00 0.00 0.00 86 1024.8
20260502193551 9 0 0.0 0.0 0.00 0.00 0.00 86 1024.8
20260502193054 9 0 0.0 0.0 0.00 0.00 0.00 86 1024.7
20260502192552 9 0 0.0 0.0 0.00 0.00 0.00 86 1024.7
20260502192049 9 0 0.0 1.6 0.00 0.00 0.00 86 1024.6
20260502191604 9 0 0.0 1.6 0.00 0.00 0.00 86 1024.8
20260502191055 9 0 0.0 1.6 0.00 0.00 0.00 86 1024.8
20260502190554 9 0 0.0 0.0 0.00 0.00 0.00 85 1024.9
20260502190057 9 0 0.0 0.0 0.00 0.00 0.00 86 1024.8
20260502185550 9 0 0.0 0.0 0.00 0.00 0.00 85 1024.8
20260502185052 9 0 0.0 0.0 0.00 0.00 0.00 85 1024.7
20260502184550 9 0 0.0 0.0 0.00 0.00 0.00 85 1024.8
20260502184051 9 0 0.0 0.0 0.00 0.00 0.00 85 1024.7
20260502183554 9 0 0.0 0.0 0.00 0.00 0.00 85 1024.7
20260502183051 9 0 0.0 0.0 0.00 0.00 0.00 85 1024.7
20260502182550 9 0 0.0 0.0 0.00 0.00 0.00 85 1024.8
20260502182051 9 0 0.0 0.0 0.00 0.00 0.00 85 1024.8
20260502181554 9 0 0.0 0.0 0.00 0.00 0.00 85 1024.8